Time;durP1;ratioP1;P1;durP2;ratioP2;P2;SDS_P1;SDS_P2;PMS_P1;PMS_P2;Temp;Humidity;BMP_temperature;BMP_pressure;BME280_temperature;BME280_humidity;BME280_pressure;Samples;Min_cycle;Max_cycle;Signal;HPM_P1;HPM_P2
2021/08/31 00:01:15;;;;;;;3.10;1.30;;;;;;;;;;4980939;28;20040;-57
2021/08/31 00:03:41;;;;;;;9.32;1.67;;;;;;;;;;4980576;28;20050;-58
2021/08/31 00:06:07;;;;;;;4.32;1.45;;;;;;;;;;4980434;28;20069;-58
2021/08/31 00:08:33;;;;;;;5.32;1.50;;;;;;;;;;4980644;28;20113;-58
2021/08/31 00:10:59;;;;;;;4.15;1.63;;;;;;;;;;4979804;28;20030;-56
2021/08/31 00:13:24;;;;;;;11.52;1.90;;;;;;;;;;4981749;28;20038;-56
2021/08/31 00:15:50;;;;;;;7.00;1.30;;;;;;;;;;4988987;28;20053;-57
2021/08/31 00:18:16;;;;;;;3.50;1.50;;;;;;;;;;4999375;28;20063;-58
2021/08/31 00:20:42;;;;;;;7.22;1.33;;;;;;;;;;5000739;28;20049;-57
2021/08/31 00:23:07;;;;;;;8.38;1.70;;;;;;;;;;5001189;28;20145;-58
2021/08/31 00:25:33;;;;;;;6.63;1.73;;;;;;;;;;4998580;28;20042;-59
2021/08/31 00:27:59;;;;;;;6.38;1.55;;;;;;;;;;4998428;28;20930;-57
2021/08/31 00:30:27;;;;;;;3.35;1.38;;;;;;;;;;4999876;28;20046;-59
2021/08/31 00:32:53;;;;;;;7.38;1.65;;;;;;;;;;5000916;28;20045;-59
2021/08/31 00:35:19;;;;;;;5.40;1.70;;;;;;;;;;5000908;28;20400;-58
2021/08/31 00:37:44;;;;;;;6.32;2.05;;;;;;;;;;4999995;28;20602;-57
2021/08/31 00:40:10;;;;;;;5.35;1.75;;;;;;;;;;4999771;28;20041;-58
2021/08/31 00:42:36;;;;;;;6.88;1.98;;;;;;;;;;4998141;28;20041;-57
2021/08/31 00:45:02;;;;;;;12.20;1.85;;;;;;;;;;4981693;28;20481;-58
2021/08/31 00:47:28;;;;;;;14.98;2.20;;;;;;;;;;4985887;28;20173;-58
2021/08/31 00:49:54;;;;;;;5.00;1.65;;;;;;;;;;4999300;28;20041;-58
2021/08/31 00:52:19;;;;;;;7.88;1.80;;;;;;;;;;4996896;28;20038;-58
2021/08/31 00:54:46;;;;;;;5.00;1.77;;;;;;;;;;4979198;28;20050;-59
2021/08/31 00:57:13;;;;;;;5.55;1.33;;;;;;;;;;4999678;28;21021;-58
2021/08/31 00:59:39;;;;;;;4.75;1.60;;;;;;;;;;4996452;28;20072;-58
2021/08/31 01:02:04;;;;;;;8.07;1.52;;;;;;;;;;4999160;28;20899;-58
2021/08/31 01:04:31;;;;;;;6.93;1.80;;;;;;;;;;5000739;28;20045;-58
2021/08/31 01:06:57;;;;;;;4.43;1.80;;;;;;;;;;5000084;28;20046;-57
2021/08/31 01:09:24;;;;;;;8.95;1.63;;;;;;;;;;4997567;28;20045;-57
2021/08/31 01:11:50;;;;;;;6.47;1.67;;;;;;;;;;5001759;28;20491;-56
2021/08/31 01:14:19;;;;;;;4.55;1.55;;;;;;;;;;5000761;28;20133;-57
2021/08/31 01:16:49;;;;;;;8.32;1.70;;;;;;;;;;4999350;28;20052;-57
2021/08/31 01:19:15;;;;;;;8.38;1.95;;;;;;;;;;4999699;28;20523;-58
2021/08/31 01:21:41;;;;;;;4.28;1.58;;;;;;;;;;4999375;28;20124;-57
2021/08/31 01:24:06;;;;;;;4.45;1.83;;;;;;;;;;4999157;28;20041;-58
2021/08/31 01:26:32;;;;;;;3.78;1.52;;;;;;;;;;4999006;28;20030;-58
2021/08/31 01:28:58;;;;;;;9.73;1.92;;;;;;;;;;4999512;28;20177;-57
2021/08/31 01:31:24;;;;;;;4.07;1.33;;;;;;;;;;4997070;28;20066;-58
2021/08/31 01:33:50;;;;;;;4.10;1.42;;;;;;;;;;4998078;28;20049;-57
2021/08/31 01:36:16;;;;;;;4.10;1.20;;;;;;;;;;4999979;28;20531;-57
2021/08/31 01:38:43;;;;;;;7.05;1.55;;;;;;;;;;4999330;28;20064;-58
2021/08/31 01:41:09;;;;;;;4.38;1.50;;;;;;;;;;4999332;28;20049;-58
2021/08/31 01:43:34;;;;;;;4.78;1.60;;;;;;;;;;4999534;28;20041;-59
2021/08/31 01:46:00;;;;;;;7.35;1.88;;;;;;;;;;4998007;28;20477;-59
2021/08/31 01:48:26;;;;;;;5.40;1.60;;;;;;;;;;4999902;28;20042;-58
2021/08/31 01:50:52;;;;;;;4.38;1.45;;;;;;;;;;5000929;28;20029;-58
2021/08/31 01:53:18;;;;;;;4.43;1.55;;;;;;;;;;4998248;28;20037;-57
2021/08/31 01:55:43;;;;;;;8.32;2.15;;;;;;;;;;5000381;28;20073;-56
2021/08/31 01:58:09;;;;;;;5.82;1.55;;;;;;;;;;5000605;28;20173;-58
2021/08/31 02:00:35;;;;;;;6.30;1.67;;;;;;;;;;4998443;28;20045;-59
2021/08/31 02:03:01;;;;;;;5.72;1.30;;;;;;;;;;4999719;28;20227;-57
2021/08/31 02:05:27;;;;;;;7.32;1.90;;;;;;;;;;5002675;28;20049;-58
2021/08/31 02:07:53;;;;;;;4.43;1.42;;;;;;;;;;5002470;28;20448;-58
2021/08/31 02:10:18;;;;;;;9.85;2.03;;;;;;;;;;5002077;28;20045;-57
2021/08/31 02:12:44;;;;;;;11.80;1.90;;;;;;;;;;5004264;28;20034;-58
2021/08/31 02:15:10;;;;;;;4.55;1.50;;;;;;;;;;5004716;28;20042;-58
2021/08/31 02:17:36;;;;;;;5.70;1.80;;;;;;;;;;5001671;28;21798;-59
2021/08/31 02:20:03;;;;;;;6.47;1.52;;;;;;;;;;5003952;28;20046;-57
2021/08/31 02:22:28;;;;;;;8.13;1.83;;;;;;;;;;5004217;28;20053;-57
2021/08/31 02:24:57;;;;;;;5.75;1.70;;;;;;;;;;4983355;28;20403;-57
2021/08/31 02:27:23;;;;;;;7.45;2.10;;;;;;;;;;5003108;28;20050;-58
2021/08/31 02:29:49;;;;;;;9.43;3.45;;;;;;;;;;4985065;28;20046;-57
2021/08/31 02:32:15;;;;;;;8.60;2.03;;;;;;;;;;5004418;28;20635;-57
2021/08/31 02:34:41;;;;;;;7.93;1.63;;;;;;;;;;5005740;28;20103;-56
2021/08/31 02:37:07;;;;;;;5.22;1.30;;;;;;;;;;5001968;28;20057;-58
2021/08/31 02:39:33;;;;;;;8.30;1.60;;;;;;;;;;5003040;28;20054;-57
2021/08/31 02:41:59;;;;;;;12.20;1.83;;;;;;;;;;5004597;28;20237;-58
2021/08/31 02:44:25;;;;;;;6.88;1.55;;;;;;;;;;5004655;28;20125;-57
2021/08/31 02:46:51;;;;;;;5.78;1.42;;;;;;;;;;5003390;28;20142;-58
2021/08/31 02:49:16;;;;;;;5.45;1.83;;;;;;;;;;5004025;28;20070;-56
2021/08/31 02:51:42;;;;;;;10.07;1.83;;;;;;;;;;5001700;28;20052;-55
2021/08/31 02:54:08;;;;;;;6.43;1.85;;;;;;;;;;5001920;28;20045;-55
2021/08/31 02:56:34;;;;;;;8.52;2.13;;;;;;;;;;5002201;28;20037;-58
2021/08/31 02:59:00;;;;;;;11.40;2.00;;;;;;;;;;5001255;28;20056;-57
2021/08/31 03:01:38;;;;;;;7.28;1.90;;;;;;;;;;4979521;28;20038;-58
2021/08/31 03:04:04;;;;;;;6.53;1.80;;;;;;;;;;5002708;28;20049;-57
2021/08/31 03:06:30;;;;;;;11.43;1.70;;;;;;;;;;5000186;28;20121;-58
2021/08/31 03:08:56;;;;;;;11.85;2.28;;;;;;;;;;5002291;28;20991;-55
2021/08/31 03:11:22;;;;;;;12.35;1.85;;;;;;;;;;5001747;28;20049;-58
2021/08/31 03:13:49;;;;;;;8.93;1.83;;;;;;;;;;5002688;28;20034;-57
2021/08/31 03:16:14;;;;;;;7.72;1.90;;;;;;;;;;5002824;28;20042;-58
2021/08/31 03:18:40;;;;;;;10.40;1.80;;;;;;;;;;5002253;28;20060;-57
2021/08/31 03:21:06;;;;;;;11.98;1.98;;;;;;;;;;4983012;28;20624;-58
2021/08/31 03:23:32;;;;;;;8.63;1.85;;;;;;;;;;5003739;28;20042;-56
2021/08/31 03:25:58;;;;;;;9.63;2.30;;;;;;;;;;5003210;28;20034;-55
2021/08/31 03:28:24;;;;;;;8.70;1.95;;;;;;;;;;4999750;28;20045;-55
2021/08/31 03:30:49;;;;;;;10.95;2.10;;;;;;;;;;4976958;28;20104;-55
2021/08/31 03:33:16;;;;;;;6.43;1.80;;;;;;;;;;5001026;28;20045;-55
2021/08/31 03:35:41;;;;;;;8.52;1.73;;;;;;;;;;5002313;28;20077;-56
2021/08/31 03:38:08;;;;;;;10.88;1.70;;;;;;;;;;5001090;28;20128;-56
2021/08/31 03:40:34;;;;;;;7.38;1.90;;;;;;;;;;4982892;28;20076;-54
2021/08/31 03:43:00;;;;;;;14.43;1.90;;;;;;;;;;5001977;28;20575;-56
2021/08/31 03:45:25;;;;;;;6.13;1.58;;;;;;;;;;5000878;28;20041;-55
2021/08/31 03:47:51;;;;;;;4.40;1.67;;;;;;;;;;5001286;28;20046;-56
2021/08/31 03:50:17;;;;;;;6.40;1.50;;;;;;;;;;4999935;28;20173;-54
2021/08/31 03:52:43;;;;;;;4.28;1.88;;;;;;;;;;4999294;28;20487;-55
2021/08/31 03:55:09;;;;;;;8.10;2.20;;;;;;;;;;5001001;28;20045;-55
2021/08/31 03:57:35;;;;;;;10.23;1.95;;;;;;;;;;4999085;28;20136;-55
2021/08/31 04:00:01;;;;;;;9.35;2.10;;;;;;;;;;5001641;28;20428;-55
2021/08/31 04:02:27;;;;;;;5.55;2.13;;;;;;;;;;4998300;28;20186;-56
2021/08/31 04:04:53;;;;;;;11.43;2.03;;;;;;;;;;5000263;28;20034;-55
2021/08/31 04:07:18;;;;;;;7.20;1.90;;;;;;;;;;4999762;28;20404;-55
2021/08/31 04:09:44;;;;;;;6.65;1.92;;;;;;;;;;5001365;28;20034;-56
2021/08/31 04:12:10;;;;;;;10.43;2.47;;;;;;;;;;5000748;28;20069;-56
2021/08/31 04:14:36;;;;;;;5.72;2.05;;;;;;;;;;5002194;28;20104;-56
2021/08/31 04:17:02;;;;;;;6.47;2.33;;;;;;;;;;4999474;28;20050;-56
2021/08/31 04:19:27;;;;;;;7.00;2.60;;;;;;;;;;4998702;28;20507;-55
2021/08/31 04:21:53;;;;;;;8.23;2.67;;;;;;;;;;5000630;28;20060;-55
2021/08/31 04:24:19;;;;;;;9.50;2.28;;;;;;;;;;4999829;28;20753;-55
2021/08/31 04:26:45;;;;;;;7.75;2.47;;;;;;;;;;4999279;28;20052;-55
2021/08/31 04:29:11;;;;;;;6.65;2.72;;;;;;;;;;5000610;28;20129;-56
2021/08/31 04:31:37;;;;;;;6.53;2.22;;;;;;;;;;4996462;28;20046;-55
2021/08/31 04:34:03;;;;;;;9.93;2.33;;;;;;;;;;5000320;28;20400;-55
2021/08/31 04:36:28;;;;;;;11.65;2.53;;;;;;;;;;4999230;28;20046;-56
2021/08/31 04:38:54;;;;;;;13.15;2.38;;;;;;;;;;4999929;28;20046;-54
2021/08/31 04:41:20;;;;;;;6.20;2.10;;;;;;;;;;4975491;28;20071;-56
2021/08/31 04:43:46;;;;;;;10.52;2.30;;;;;;;;;;4999341;28;20809;-55
2021/08/31 04:46:12;;;;;;;7.82;2.33;;;;;;;;;;5000143;28;20113;-55
2021/08/31 04:48:38;;;;;;;8.52;1.90;;;;;;;;;;4979009;28;20041;-54
2021/08/31 04:51:04;;;;;;;5.03;2.17;;;;;;;;;;5000595;28;20040;-52
2021/08/31 04:53:30;;;;;;;9.32;2.40;;;;;;;;;;4998927;28;21220;-55
2021/08/31 04:55:56;;;;;;;8.95;2.33;;;;;;;;;;4998821;28;20117;-55
2021/08/31 04:58:22;;;;;;;6.25;2.42;;;;;;;;;;4997565;28;20711;-55
2021/08/31 05:00:48;;;;;;;10.70;2.92;;;;;;;;;;4998341;28;20034;-55
2021/08/31 05:03:14;;;;;;;7.03;2.50;;;;;;;;;;4999481;28;20038;-56
2021/08/31 05:05:41;;;;;;;11.60;2.65;;;;;;;;;;4999163;28;20049;-55
2021/08/31 05:08:07;;;;;;;11.15;2.97;;;;;;;;;;4999473;28;20057;-54
2021/08/31 05:10:32;;;;;;;8.00;2.97;;;;;;;;;;4998599;28;20038;-55
2021/08/31 05:12:58;;;;;;;6.72;2.40;;;;;;;;;;5000767;28;20042;-56
2021/08/31 05:15:24;;;;;;;5.93;2.67;;;;;;;;;;4997584;28;20062;-56
2021/08/31 05:17:50;;;;;;;7.72;2.92;;;;;;;;;;5001931;28;20046;-56
2021/08/31 05:20:17;;;;;;;6.60;2.75;;;;;;;;;;5003052;28;20072;-56
2021/08/31 05:22:43;;;;;;;5.55;2.42;;;;;;;;;;5002673;28;20057;-56
2021/08/31 05:25:09;;;;;;;5.28;2.53;;;;;;;;;;5004566;28;20068;-55
2021/08/31 05:27:35;;;;;;;9.00;3.25;;;;;;;;;;5002454;28;20524;-54
2021/08/31 05:30:00;;;;;;;12.65;3.22;;;;;;;;;;5002611;28;20034;-54
2021/08/31 05:32:26;;;;;;;6.97;3.00;;;;;;;;;;5001513;28;20146;-54
2021/08/31 05:34:52;;;;;;;7.40;3.05;;;;;;;;;;5002994;28;20048;-53
2021/08/31 05:37:18;;;;;;;9.48;3.20;;;;;;;;;;5001680;28;20049;-53
2021/08/31 05:39:44;;;;;;;7.97;2.63;;;;;;;;;;5005943;28;20042;-55
2021/08/31 05:42:10;;;;;;;6.65;3.05;;;;;;;;;;5006138;28;20036;-55
2021/08/31 05:44:37;;;;;;;7.30;2.90;;;;;;;;;;5004019;28;20042;-54
2021/08/31 05:47:04;;;;;;;10.48;3.17;;;;;;;;;;5005962;28;20483;-54
2021/08/31 05:49:30;;;;;;;6.70;2.83;;;;;;;;;;5005274;28;20051;-53
2021/08/31 05:51:59;;;;;;;11.13;3.40;;;;;;;;;;5006724;28;20421;-55
2021/08/31 05:54:26;;;;;;;13.95;3.10;;;;;;;;;;5005216;28;20693;-55
2021/08/31 05:56:55;;;;;;;10.20;3.08;;;;;;;;;;5007046;28;20042;-55
2021/08/31 05:59:21;;;;;;;8.95;3.08;;;;;;;;;;5005647;28;20049;-56
2021/08/31 06:01:47;;;;;;;8.85;3.45;;;;;;;;;;5005879;28;20053;-56
2021/08/31 06:04:13;;;;;;;9.95;3.08;;;;;;;;;;5007298;28;20046;-56
2021/08/31 06:06:39;;;;;;;7.18;2.60;;;;;;;;;;5008564;28;20037;-56
2021/08/31 06:09:05;;;;;;;7.40;1.77;;;;;;;;;;5008132;28;20064;-55
2021/08/31 06:11:35;;;;;;;15.20;2.20;;;;;;;;;;5006643;28;20041;-55
2021/08/31 06:14:01;;;;;;;3.20;1.08;;;;;;;;;;5008106;28;20140;-55
2021/08/31 06:16:27;;;;;;;3.70;1.23;;;;;;;;;;5004349;28;20072;-54
2021/08/31 06:18:52;;;;;;;10.88;1.50;;;;;;;;;;4987089;28;20065;-55
2021/08/31 06:21:18;;;;;;;4.63;1.75;;;;;;;;;;5007926;28;20091;-53
2021/08/31 06:23:44;;;;;;;5.88;1.52;;;;;;;;;;5005863;28;20108;-56
2021/08/31 06:26:10;;;;;;;3.97;1.60;;;;;;;;;;5006153;28;20524;-56
2021/08/31 06:28:36;;;;;;;3.10;1.30;;;;;;;;;;5004528;28;20087;-56
2021/08/31 06:31:02;;;;;;;4.15;2.05;;;;;;;;;;5004271;28;20079;-55
2021/08/31 06:33:28;;;;;;;5.13;1.55;;;;;;;;;;5006302;28;20045;-56
2021/08/31 06:35:53;;;;;;;6.00;1.75;;;;;;;;;;5008406;28;20455;-56
2021/08/31 06:38:19;;;;;;;8.00;1.88;;;;;;;;;;5004077;28;20049;-55
2021/08/31 06:40:45;;;;;;;4.70;1.35;;;;;;;;;;5004980;28;20677;-56
2021/08/31 06:43:11;;;;;;;4.45;1.58;;;;;;;;;;5001970;28;20128;-56
2021/08/31 06:45:37;;;;;;;4.93;1.60;;;;;;;;;;5001919;28;20042;-56
2021/08/31 06:48:03;;;;;;;4.72;1.50;;;;;;;;;;5001322;28;20049;-52
2021/08/31 06:50:29;;;;;;;5.57;1.20;;;;;;;;;;5000018;28;20038;-53
2021/08/31 06:52:54;;;;;;;3.30;1.48;;;;;;;;;;5001642;28;20531;-56
2021/08/31 06:55:20;;;;;;;2.28;1.00;;;;;;;;;;5002322;28;20116;-53
2021/08/31 06:57:46;;;;;;;6.93;1.50;;;;;;;;;;5001518;28;20045;-55
2021/08/31 07:00:12;;;;;;;5.65;1.70;;;;;;;;;;5003361;28;20038;-55
2021/08/31 07:02:38;;;;;;;3.63;1.25;;;;;;;;;;5001086;28;20042;-56
2021/08/31 07:05:04;;;;;;;3.70;1.60;;;;;;;;;;5002262;28;20052;-55
2021/08/31 07:07:30;;;;;;;9.07;1.98;;;;;;;;;;5000198;28;20037;-53
2021/08/31 07:09:56;;;;;;;4.03;1.33;;;;;;;;;;4983104;28;20046;-55
2021/08/31 07:12:22;;;;;;;3.97;1.80;;;;;;;;;;5002853;28;21003;-55
2021/08/31 07:14:48;;;;;;;5.57;1.60;;;;;;;;;;5004042;28;20046;-56
2021/08/31 07:17:15;;;;;;;3.97;1.05;;;;;;;;;;5001442;28;20132;-55
2021/08/31 07:19:41;;;;;;;2.75;1.08;;;;;;;;;;5001917;28;20465;-56
2021/08/31 07:22:06;;;;;;;3.20;1.45;;;;;;;;;;5002393;28;20030;-56
2021/08/31 07:24:32;;;;;;;4.20;1.30;;;;;;;;;;5000915;28;20038;-55
2021/08/31 07:26:58;;;;;;;4.68;1.70;;;;;;;;;;5000983;28;20096;-55
2021/08/31 07:29:24;;;;;;;6.47;2.20;;;;;;;;;;5001421;28;20042;-53
2021/08/31 07:31:52;;;;;;;4.93;1.67;;;;;;;;;;5000842;28;20104;-54
2021/08/31 07:34:18;;;;;;;4.63;1.65;;;;;;;;;;5001231;28;20088;-56
2021/08/31 07:36:45;;;;;;;3.10;1.40;;;;;;;;;;5001673;28;20042;-55
2021/08/31 07:39:11;;;;;;;4.05;1.55;;;;;;;;;;5002554;28;20042;-54
2021/08/31 07:41:37;;;;;;;3.72;1.70;;;;;;;;;;5001301;28;20060;-56
2021/08/31 07:44:03;;;;;;;3.80;1.70;;;;;;;;;;5001731;28;20876;-55
2021/08/31 07:46:28;;;;;;;4.45;1.40;;;;;;;;;;5000810;28;20040;-56
2021/08/31 07:48:54;;;;;;;3.95;1.42;;;;;;;;;;5001996;28;20072;-55
2021/08/31 07:51:20;;;;;;;5.18;1.80;;;;;;;;;;5001126;28;20034;-55
2021/08/31 07:53:46;;;;;;;3.22;1.42;;;;;;;;;;5002124;28;20647;-55
2021/08/31 07:56:11;;;;;;;5.97;1.77;;;;;;;;;;5000097;28;20065;-55
2021/08/31 07:58:37;;;;;;;4.97;1.58;;;;;;;;;;4999653;28;20053;-56
2021/08/31 08:01:04;;;;;;;4.70;1.80;;;;;;;;;;5000952;28;20053;-55
2021/08/31 08:03:30;;;;;;;4.40;1.60;;;;;;;;;;5001384;28;20037;-56
2021/08/31 08:05:55;;;;;;;5.43;2.00;;;;;;;;;;4999648;28;20038;-56
2021/08/31 08:08:21;;;;;;;3.67;1.52;;;;;;;;;;4999318;28;20038;-53
2021/08/31 08:10:47;;;;;;;4.90;1.80;;;;;;;;;;5000899;28;20692;-55
2021/08/31 08:13:13;;;;;;;6.85;1.88;;;;;;;;;;5000644;28;20153;-55
2021/08/31 08:15:39;;;;;;;5.15;2.00;;;;;;;;;;4999460;28;20050;-55
2021/08/31 08:18:05;;;;;;;6.35;1.77;;;;;;;;;;4998802;28;20056;-54
2021/08/31 08:20:31;;;;;;;3.03;1.20;;;;;;;;;;4998888;28;20034;-52
2021/08/31 08:22:57;;;;;;;3.53;1.40;;;;;;;;;;5000930;28;20033;-55
2021/08/31 08:25:23;;;;;;;4.65;1.95;;;;;;;;;;4998733;28;20167;-56
2021/08/31 08:27:48;;;;;;;3.60;1.48;;;;;;;;;;5000737;28;20394;-55
2021/08/31 08:30:14;;;;;;;3.22;1.60;;;;;;;;;;4999832;28;20093;-54
2021/08/31 08:32:40;;;;;;;4.47;1.77;;;;;;;;;;5000387;28;20033;-53
2021/08/31 08:35:07;;;;;;;3.90;1.80;;;;;;;;;;5001409;28;20041;-55
2021/08/31 08:37:33;;;;;;;5.15;1.60;;;;;;;;;;4998547;28;20556;-53
2021/08/31 08:39:59;;;;;;;3.50;1.50;;;;;;;;;;5000814;28;20049;-55
2021/08/31 08:42:25;;;;;;;4.13;1.83;;;;;;;;;;4998190;28;20520;-56
2021/08/31 08:44:50;;;;;;;4.30;1.42;;;;;;;;;;5000085;28;22634;-55
2021/08/31 08:47:16;;;;;;;3.58;1.50;;;;;;;;;;4997982;28;20117;-55
2021/08/31 08:49:46;;;;;;;4.28;1.80;;;;;;;;;;4999564;28;20056;-56
2021/08/31 08:52:12;;;;;;;3.92;1.70;;;;;;;;;;4999981;28;20641;-54
2021/08/31 08:54:40;;;;;;;3.35;1.30;;;;;;;;;;4998656;28;20045;-56
2021/08/31 08:57:05;;;;;;;3.70;1.50;;;;;;;;;;4999274;28;20046;-53
2021/08/31 08:59:31;;;;;;;3.80;1.77;;;;;;;;;;4998696;28;20119;-56
2021/08/31 09:01:57;;;;;;;6.65;1.60;;;;;;;;;;5000206;28;20034;-56
2021/08/31 09:04:50;;;;;;;4.78;1.70;;;;;;;;;;4998732;28;20057;-55
2021/08/31 09:07:16;;;;;;;3.65;1.75;;;;;;;;;;4995498;28;20096;-55
2021/08/31 09:09:42;;;;;;;5.65;1.73;;;;;;;;;;4998923;28;20153;-56
2021/08/31 09:12:22;;;;;;;4.57;1.90;;;;;;;;;;4998435;28;20033;-54
2021/08/31 09:14:48;;;;;;;6.03;2.00;;;;;;;;;;4986551;28;20053;-54
2021/08/31 09:17:14;;;;;;;4.50;1.85;;;;;;;;;;5004041;28;20149;-56
2021/08/31 09:19:42;;;;;;;6.50;1.77;;;;;;;;;;5003824;28;20034;-55
2021/08/31 09:22:16;;;;;;;4.68;2.00;;;;;;;;;;5004657;28;20492;-55
2021/08/31 09:24:55;;;;;;;3.80;1.48;;;;;;;;;;5003866;28;20060;-56
2021/08/31 09:27:33;;;;;;;4.38;1.98;;;;;;;;;;5002421;28;20334;-56
2021/08/31 09:30:19;;;;;;;3.63;1.55;;;;;;;;;;5004497;28;20046;-56
2021/08/31 09:33:06;;;;;;;4.25;1.77;;;;;;;;;;5002074;28;20094;-56
2021/08/31 09:35:33;;;;;;;6.68;2.20;;;;;;;;;;5003658;28;20042;-55
2021/08/31 09:38:06;;;;;;;5.18;1.83;;;;;;;;;;5003734;28;20076;-56
2021/08/31 09:40:37;;;;;;;3.95;1.67;;;;;;;;;;4980752;28;20041;-56
2021/08/31 09:43:04;;;;;;;5.20;2.03;;;;;;;;;;4981551;28;20950;-56
2021/08/31 09:45:32;;;;;;;3.47;1.73;;;;;;;;;;5002017;28;20630;-56
2021/08/31 09:47:59;;;;;;;5.63;1.90;;;;;;;;;;5002291;28;20037;-56
2021/08/31 09:50:29;;;;;;;4.22;2.03;;;;;;;;;;5002823;28;20536;-54
2021/08/31 09:53:14;;;;;;;5.78;1.90;;;;;;;;;;5003177;28;20049;-56
2021/08/31 09:55:44;;;;;;;4.00;1.60;;;;;;;;;;5002292;28;20141;-55
2021/08/31 09:58:25;;;;;;;4.00;1.80;;;;;;;;;;5002702;28;20603;-54
2021/08/31 10:00:53;;;;;;;4.63;2.30;;;;;;;;;;5001873;28;20873;-55
2021/08/31 10:03:19;;;;;;;6.65;2.05;;;;;;;;;;5002440;28;20048;-56
2021/08/31 10:06:05;;;;;;;6.00;1.80;;;;;;;;;;4979716;28;20413;-54
2021/08/31 10:08:32;;;;;;;3.72;1.60;;;;;;;;;;4969717;28;20042;-56
2021/08/31 10:10:59;;;;;;;4.60;1.70;;;;;;;;;;4977432;28;20121;-56
2021/08/31 10:13:25;;;;;;;4.22;1.63;;;;;;;;;;4979376;28;20491;-56
2021/08/31 10:15:55;;;;;;;4.30;1.90;;;;;;;;;;4980457;28;20050;-54
2021/08/31 10:18:22;;;;;;;11.13;2.10;;;;;;;;;;4978336;28;20125;-53
2021/08/31 10:20:52;;;;;;;6.40;1.75;;;;;;;;;;4980666;28;20042;-55
2021/08/31 10:23:22;;;;;;;4.88;1.70;;;;;;;;;;4978692;28;20045;-56
2021/08/31 10:25:48;;;;;;;4.20;1.80;;;;;;;;;;4980057;28;20296;-54
2021/08/31 10:28:24;;;;;;;4.40;2.08;;;;;;;;;;4979796;28;20353;-56
2021/08/31 10:30:51;;;;;;;4.63;2.20;;;;;;;;;;4979722;28;20046;-56
2021/08/31 10:33:36;;;;;;;4.25;1.88;;;;;;;;;;4979099;28;20038;-54
2021/08/31 10:36:04;;;;;;;4.00;2.00;;;;;;;;;;4977792;28;20210;-55
2021/08/31 10:38:42;;;;;;;5.05;1.92;;;;;;;;;;4978975;28;20065;-54
2021/08/31 10:41:44;;;;;;;4.85;2.00;;;;;;;;;;4979869;28;20210;-55
2021/08/31 10:44:11;;;;;;;4.70;2.05;;;;;;;;;;4985545;28;20046;-55
2021/08/31 10:46:55;;;;;;;4.43;1.77;;;;;;;;;;5000784;28;20053;-55
2021/08/31 10:49:21;;;;;;;4.38;1.98;;;;;;;;;;5001965;28;21185;-52
2021/08/31 10:52:02;;;;;;;5.28;2.25;;;;;;;;;;5002615;28;20046;-56
2021/08/31 10:54:47;;;;;;;4.57;2.22;;;;;;;;;;5001008;28;20145;-54
2021/08/31 10:57:51;;;;;;;5.18;2.15;;;;;;;;;;5002187;28;20048;-56
2021/08/31 11:00:17;;;;;;;3.88;1.92;;;;;;;;;;4897697;29;20510;-55
2021/08/31 11:02:53;;;;;;;4.78;2.17;;;;;;;;;;4897290;29;20048;-55
2021/08/31 11:05:19;;;;;;;4.82;2.33;;;;;;;;;;4952404;28;20046;-54
2021/08/31 11:07:45;;;;;;;6.93;2.40;;;;;;;;;;5001839;28;20034;-54
2021/08/31 11:10:11;;;;;;;3.78;2.03;;;;;;;;;;5002173;28;20190;-55
2021/08/31 11:12:36;;;;;;;7.82;2.35;;;;;;;;;;5001486;28;20041;-55
2021/08/31 11:15:02;;;;;;;4.70;2.25;;;;;;;;;;5001528;28;20062;-54
2021/08/31 11:17:32;;;;;;;5.38;2.25;;;;;;;;;;4976823;28;20444;-54
2021/08/31 11:20:13;;;;;;;7.00;2.42;;;;;;;;;;5000688;28;20075;-55
2021/08/31 11:22:39;;;;;;;5.00;2.42;;;;;;;;;;4999761;28;20044;-55
2021/08/31 11:25:05;;;;;;;4.18;2.10;;;;;;;;;;5002804;28;20041;-56
2021/08/31 11:27:47;;;;;;;5.22;2.42;;;;;;;;;;5000016;28;20056;-56
2021/08/31 11:30:13;;;;;;;4.82;2.30;;;;;;;;;;5000251;28;20041;-55
2021/08/31 11:32:39;;;;;;;7.15;2.40;;;;;;;;;;4999658;28;20189;-56
2021/08/31 11:35:05;;;;;;;6.18;2.72;;;;;;;;;;5001089;28;20042;-55
2021/08/31 11:37:31;;;;;;;5.68;2.25;;;;;;;;;;4999985;28;20069;-54
2021/08/31 11:39:58;;;;;;;5.20;2.30;;;;;;;;;;5000492;28;20048;-55
2021/08/31 11:42:23;;;;;;;5.35;2.42;;;;;;;;;;4999785;28;20105;-55
2021/08/31 11:44:56;;;;;;;4.43;2.38;;;;;;;;;;5002133;28;20033;-54
2021/08/31 11:47:22;;;;;;;5.10;2.33;;;;;;;;;;5000960;28;20064;-55
2021/08/31 11:49:48;;;;;;;5.85;2.38;;;;;;;;;;5001914;28;20042;-55
2021/08/31 11:52:15;;;;;;;5.57;2.70;;;;;;;;;;5000389;28;20038;-55
2021/08/31 11:54:45;;;;;;;7.38;2.70;;;;;;;;;;5000536;28;20041;-56
2021/08/31 11:57:11;;;;;;;5.60;2.80;;;;;;;;;;4982209;28;20138;-55
2021/08/31 11:59:41;;;;;;;4.57;2.40;;;;;;;;;;4988878;28;20505;-53
2021/08/31 12:02:20;;;;;;;5.60;2.15;;;;;;;;;;4997082;28;20042;-55
2021/08/31 12:04:46;;;;;;;7.45;2.80;;;;;;;;;;5000058;28;20038;-55
2021/08/31 12:07:14;;;;;;;6.78;2.78;;;;;;;;;;5000212;28;20119;-56
2021/08/31 12:09:42;;;;;;;4.82;2.25;;;;;;;;;;5000477;28;20124;-58
2021/08/31 12:12:09;;;;;;;5.05;2.10;;;;;;;;;;4998948;28;20983;-57
2021/08/31 12:14:35;;;;;;;6.25;2.63;;;;;;;;;;5000326;28;20042;-56
2021/08/31 12:17:00;;;;;;;6.05;2.45;;;;;;;;;;5000863;28;20037;-58
2021/08/31 12:19:27;;;;;;;4.90;2.38;;;;;;;;;;5000241;28;20054;-58
2021/08/31 12:22:08;;;;;;;5.18;2.72;;;;;;;;;;4999039;28;20073;-57
2021/08/31 12:24:34;;;;;;;5.53;2.65;;;;;;;;;;4999876;28;20057;-57
2021/08/31 12:27:07;;;;;;;5.00;2.65;;;;;;;;;;4999500;28;20350;-54
2021/08/31 12:29:53;;;;;;;5.20;2.25;;;;;;;;;;4998694;28;20045;-58
2021/08/31 12:32:23;;;;;;;4.68;2.22;;;;;;;;;;4996935;28;20038;-55
2021/08/31 12:34:49;;;;;;;6.40;2.58;;;;;;;;;;4998190;28;20140;-54
2021/08/31 12:37:28;;;;;;;5.50;2.65;;;;;;;;;;4999975;28;20046;-53
2021/08/31 12:40:09;;;;;;;6.10;2.50;;;;;;;;;;4999094;28;20089;-53
2021/08/31 12:42:35;;;;;;;7.75;2.30;;;;;;;;;;4998647;28;20042;-55
2021/08/31 12:45:01;;;;;;;7.22;2.80;;;;;;;;;;5000743;28;20037;-54
2021/08/31 12:47:26;;;;;;;5.50;3.08;;;;;;;;;;4998746;28;20045;-55
2021/08/31 12:49:52;;;;;;;12.00;3.20;;;;;;;;;;5000251;28;20029;-56
2021/08/31 12:52:20;;;;;;;6.32;2.90;;;;;;;;;;4998894;28;20045;-54
2021/08/31 12:54:46;;;;;;;6.85;3.20;;;;;;;;;;4999844;28;20041;-55
2021/08/31 12:57:12;;;;;;;9.23;3.20;;;;;;;;;;5000370;28;20400;-52
2021/08/31 12:59:39;;;;;;;8.77;3.28;;;;;;;;;;4999461;28;20061;-55
2021/08/31 13:02:06;;;;;;;8.38;3.63;;;;;;;;;;4980378;28;20042;-55
2021/08/31 13:04:33;;;;;;;6.85;3.45;;;;;;;;;;4998739;28;20479;-56
2021/08/31 13:07:12;;;;;;;7.40;3.50;;;;;;;;;;5000597;28;20073;-54
2021/08/31 13:09:41;;;;;;;7.50;3.28;;;;;;;;;;4997827;28;20299;-53
2021/08/31 13:12:10;;;;;;;6.38;3.30;;;;;;;;;;4997547;28;20906;-54
2021/08/31 13:14:36;;;;;;;6.38;3.65;;;;;;;;;;4998639;28;20038;-55
2021/08/31 13:17:02;;;;;;;5.82;3.42;;;;;;;;;;5000418;28;20055;-54
2021/08/31 13:19:28;;;;;;;7.40;3.83;;;;;;;;;;4998313;28;20053;-55
2021/08/31 13:21:55;;;;;;;12.88;3.83;;;;;;;;;;4997925;28;20132;-52
2021/08/31 13:24:21;;;;;;;7.78;3.65;;;;;;;;;;4998630;28;20130;-55
2021/08/31 13:26:47;;;;;;;6.43;2.97;;;;;;;;;;4998887;28;20045;-55
2021/08/31 13:29:13;;;;;;;7.38;3.40;;;;;;;;;;4998456;28;20049;-55
2021/08/31 13:31:40;;;;;;;6.93;3.63;;;;;;;;;;4997608;28;20758;-54
2021/08/31 13:34:09;;;;;;;6.35;3.47;;;;;;;;;;4999680;28;20077;-55
2021/08/31 13:36:35;;;;;;;7.00;3.35;;;;;;;;;;4996481;28;20041;-55
2021/08/31 13:39:01;;;;;;;7.45;3.80;;;;;;;;;;4999389;28;20161;-55
2021/08/31 13:41:31;;;;;;;10.48;3.42;;;;;;;;;;4976609;28;20150;-56
2021/08/31 13:43:57;;;;;;;7.90;3.50;;;;;;;;;;4990993;28;20065;-54
2021/08/31 13:46:23;;;;;;;7.55;3.88;;;;;;;;;;4997818;28;20049;-55
2021/08/31 13:48:49;;;;;;;7.00;3.63;;;;;;;;;;4998901;28;20041;-56
2021/08/31 13:51:15;;;;;;;7.80;3.63;;;;;;;;;;4999157;28;20074;-55
2021/08/31 13:53:42;;;;;;;10.90;3.65;;;;;;;;;;4998991;28;20167;-55
2021/08/31 13:56:08;;;;;;;6.55;3.28;;;;;;;;;;4999290;28;20038;-55
2021/08/31 13:58:33;;;;;;;8.05;3.53;;;;;;;;;;4996196;28;20111;-55
2021/08/31 14:00:59;;;;;;;8.05;3.60;;;;;;;;;;5001894;28;20041;-55
2021/08/31 14:03:25;;;;;;;13.73;4.00;;;;;;;;;;5001256;28;20074;-55
2021/08/31 14:05:51;;;;;;;6.10;3.50;;;;;;;;;;5003281;28;20490;-55
2021/08/31 14:08:17;;;;;;;9.07;3.75;;;;;;;;;;5002149;28;20049;-54
2021/08/31 14:10:43;;;;;;;9.02;3.78;;;;;;;;;;5002565;28;20676;-56
2021/08/31 14:13:09;;;;;;;7.82;3.28;;;;;;;;;;5002433;28;20037;-54
2021/08/31 14:15:35;;;;;;;7.13;3.75;;;;;;;;;;5002784;28;20073;-56
2021/08/31 14:18:01;;;;;;;10.57;4.00;;;;;;;;;;5000319;28;20073;-55
2021/08/31 14:20:27;;;;;;;5.97;3.40;;;;;;;;;;5002494;28;20128;-54
2021/08/31 14:22:54;;;;;;;8.23;3.30;;;;;;;;;;5001615;28;20509;-56
2021/08/31 14:25:20;;;;;;;7.25;3.88;;;;;;;;;;5002222;28;20053;-56
2021/08/31 14:27:45;;;;;;;8.50;3.70;;;;;;;;;;5001529;28;20034;-54
2021/08/31 14:30:12;;;;;;;9.00;3.65;;;;;;;;;;5003194;28;20100;-55
2021/08/31 14:32:38;;;;;;;5.90;3.17;;;;;;;;;;5001292;28;20192;-56
2021/08/31 14:35:05;;;;;;;6.30;3.50;;;;;;;;;;5003629;28;20528;-55
2021/08/31 14:37:31;;;;;;;9.15;3.03;;;;;;;;;;5001854;28;20044;-55
2021/08/31 14:39:57;;;;;;;6.07;3.38;;;;;;;;;;5003103;28;20037;-54
2021/08/31 14:42:22;;;;;;;5.63;2.83;;;;;;;;;;5001257;28;20076;-54